Flight Track Log - Related Links

Times and Time Zones

All times are in EDT time to prevent confusion due to time zone crossing. See the N419W flight status page for this flight to view local times or setup timezone preferences in your user account.


Time Position Orientation Groundspeed Altitude Reporting Facility
EDT Latitude Longitude Course Direction KTS MPH feet Rate Location/Type
Sun 10:28:14 AM 41.9483 -85.0508 99° East 103 119 3,400  Level Cleveland Center
Sun 10:29:09 AM 41.9492 -85.0217 88° East 100 115 3,900 308 Climbing Chicago Center
Sun 10:30:11 AM 41.9514 -84.9828 86° East 101 116 4,000 48 Climbing Chicago Center
Sun 10:31:13 AM 41.9533 -84.9342 87° East 114 131 4,000  Level Chicago Center
Sun 10:32:00 AM 41.9864 -84.8195 105° East  Level Estimated
Sun 10:32:15 AM 41.9517 -84.8789 92° East 121 139 4,000  Level Chicago Center
Sun 10:33:00 AM 41.9952 -84.7806 99° East  Level Estimated
Sun 10:33:17 AM 41.9506 -84.8347 92° East 120 138 4,000  Level Chicago Center
Sun 10:34:19 AM 41.9503 -84.7911 90° East 119 137 3,900  Descending Chicago Center
Sun 10:35:21 AM 41.9478 -84.7492 95° East 116 133 4,000 48 Climbing Chicago Center
Sun 10:36:23 AM 41.9414 -84.7086 102° East 113 130 4,000 -145 Level Chicago Center
Sun 10:37:25 AM 41.9350 -84.6656 101° East 115 132 3,700 -290 Descending Chicago Center
Sun 10:38:27 AM 41.9300 -84.6208 99° East 118 136 3,400 -293 Descending Chicago Center
Sun 10:39:28 AM 41.9214 -84.5689 103° East 118 136 3,100 -98 Descending Chicago Center
Sun 10:40:30 AM 41.9178 -84.5228 96° East 121 139 3,200 48 Climbing Chicago Center
Sun 10:41:32 AM 41.9208 -84.4769 85° East 123 142 3,200  Level Chicago Center
Sun 10:42:34 AM 41.9208 -84.4328 90° East 121 139 3,200  Level Chicago Center
Sun 10:43:36 AM 41.9142 -84.3883 101° East 120 138 3,200  Level Chicago Center
Sun 10:44:38 AM 41.9111 -84.3425 95° East 122 140 3,200 -48 Level Chicago Center
Sun 10:45:40 AM 41.9281 -84.2903 66° East 125 144 3,100 -48 Descending Chicago Center
Sun 10:46:42 AM 41.9064 -84.2872 174° South 119 137 3,100  Level Chicago Center
Sun 10:47:44 AM 41.9108 -84.3219 280° West 102 117 3,100  Level Chicago Center
Sun 10:48:46 AM 41.9156 -84.3583 280° West 99 114 3,100  Level Chicago Center
Sun 10:49:48 AM 41.9206 -84.3917 281° West 98 113 3,100 -130 Level Chicago Center
Sun 10:51:51 AM 41.9147 -84.4628 264° West 79 91 2,700 -209 Descending Chicago Center
Sun 10:54:06 AM 41.9236 -84.5389 279° West 88 101 2,200 -97 Descending Cleveland Center
Sun 10:56:59 AM 41.9367 -84.6150 283° West 111 128 2,200 179 Level Cleveland Center
Sun 10:58:01 AM 41.9550 -84.5961 37° Northeast 100 115 2,900 432 Climbing Cleveland Center
Sun 10:59:04 AM 41.9683 -84.5492 69° East 108 124 3,100 48 Climbing Cleveland Center
Sun 11:00:06 AM 41.9764 -84.5017 77° East 119 137 3,000 -48 Descending Cleveland Center
Sun 11:01:08 AM 41.9881 -84.4528 72° East 133 153 3,000  Level Cleveland Center
Sun 11:02:09 AM 42.0042 -84.4081 64° Northeast 133 153 3,000  Level Cleveland Center
Sun 11:03:11 AM 42.0225 -84.3667 59° Northeast 130 150 3,000  Level Cleveland Center
Sun 11:04:13 AM 42.0431 -84.3267 55° Northeast 131 151 3,000  Level Cleveland Center
Sun 11:04:35 AM 42.0475 -84.3014 77° East 129 148 3,000  Level Cleveland Center
Sun 11:05:11 AM 42.0539 -84.2742 72° East 129 148 3,000  Level Cleveland Center
Sun 11:05:15 AM 42.0550 -84.2756 317° Northwest 129 148 3,000  Level Cleveland Center
Sun 11:06:18 AM 42.0453 -84.2306 106° East 104 120 3,000  Level Cleveland Center
Sun 11:07:19 AM 42.0228 -84.2103 146° Southeast 118 136 3,000 -55 Level Cleveland Center
Sun 11:08:08 AM 42.0006 -84.1872 142° Southeast 107 123 2,900 -97 Descending Cleveland Center
Sun 11:08:21 AM 42.0003 -84.1858 105° East 109 125 2,900  Level Cleveland Center
Sun 11:09:09 AM 41.9781 -84.1556 135° Southeast 114 131 2,900  Level Cleveland Center
Sun 11:09:22 AM 41.9758 -84.1492 115° Southeast 110 127 2,900  Level Cleveland Center
Sun 11:10:04 AM 41.9594 -84.1275 135° Southeast 113 130 2,900  Level Cleveland Center
Sun 11:10:24 AM 41.9553 -84.1153 115° Southeast 115 132 2,900 98 Level Cleveland Center
Sun 11:11:05 AM 41.9731 -84.0928 43° Northeast 123 142 3,000 97 Climbing Cleveland Center
Sun 11:11:26 AM 41.9803 -84.0875 29° Northeast 124 143 3,000  Level Cleveland Center
Sun 11:12:12 AM 42.0100 -84.0761 16° North 129 148 3,000  Level Cleveland Center
Sun 11:12:28 AM 42.0139 -84.0703 48° Northeast 127 146 3,000  Level Cleveland Center
Sun 11:13:06 AM 42.0336 -84.0458 43° Northeast 130 150 3,000  Level Cleveland Center
Sun 11:13:29 AM 42.0414 -84.0372 39° Northeast 130 150 3,000 -98 Level Cleveland Center
Sun 11:14:07 AM 42.0597 -84.0103 47° Northeast 131 151 2,900  Descending Cleveland Center
Sun 11:14:31 AM 42.0661 -84.0019 44° Northeast 131 151 3,000 109 Climbing Cleveland Center
Sun 11:15:02 AM 42.0889 -83.9867 26° Northeast 129 148 3,000 -97 Level Cleveland Center
Sun 11:15:33 AM 42.1036 -83.9717 37° Northeast 130 150 2,900 -90 Descending Cleveland Center
Sun 11:16:09 AM 42.1153 -83.9483 56° Northeast 134 154 2,900 -194 Level Cleveland Center
Sun 11:16:35 AM 42.1206 -83.9294 69° East 136 157 2,700 -295 Descending Cleveland Center
Sun 11:17:10 AM 42.1314 -83.9031 61° Northeast 131 151 2,600 -197 Descending Cleveland Center
Sun 11:17:36 AM 42.1383 -83.8858 61° Northeast 133 153 2,500 -98 Descending Cleveland Center
Sun 11:18:11 AM 42.1556 -83.8642 43° Northeast 133 153 2,500 -97 Level Cleveland Center
Sun 11:18:38 AM 42.1642 -83.8500 51° Northeast 133 153 2,400 -200 Descending Cleveland Center
Sun 11:19:11 AM 42.1797 -83.8256 49° Northeast 133 153 2,300 -290 Descending Cleveland Center
Sun 11:19:40 AM 42.1847 -83.8092 68° East 133 153 2,100 -393 Descending Cleveland Center
Sun 11:20:12 AM 42.2036 -83.7897 37° Northeast 130 150 1,900 -197 Descending Cleveland Center
Sun 11:20:41 AM 42.2119 -83.7775 47° Northeast 132 152 1,900  Level Cleveland Center
Sun 11:21:13 AM 42.2311 -83.7628 30° Northeast 128 147 1,900 -97 Level Cleveland Center
Sun 11:21:43 AM 42.2386 -83.7489 54° Northeast 126 145 1,800 -197 Descending Cleveland Center
Sun 11:22:14 AM 42.2506 -83.7289 51° Northeast 106 122 1,700 -98 Descending Cleveland Center
Sun 11:22:44 AM 42.2553 -83.7153 65° Northeast 115 132 1,700  Level Cleveland Center
Sun 11:23:15 AM 42.2531 -83.6983 100° East 88 101 1,700 -97 Level Cleveland Center
Sun 11:23:46 AM 42.2428 -83.7044 204° Southwest 88 101 1,600 -358 Descending Cleveland Center
Sun 11:24:22 AM 42.2369 -83.7183 240° Southwest 74 85 1,300 -484 Descending Cleveland Center
Sun 11:24:48 AM 42.2306 -83.7250 218° Southwest 76 87 1,100 -207 Descending Cleveland Center
Sun 11:25:49 AM 42.2192 -83.7461 234° Southwest 75 86 1,000 -98 Descending Cleveland Center

Login

Don't have an account? Register now (free) for customized features, flight alerts, and more!